sensor_id;sensor_type;location;lat;lon;timestamp;temperature;humidity
21123;DHT22;10719;48.130;11.630;2023-01-29T00:01:25;0.00;99.90
21123;DHT22;10719;48.130;11.630;2023-01-29T00:03:51;0.00;99.90
21123;DHT22;10719;48.130;11.630;2023-01-29T00:06:17;-0.10;99.90
21123;DHT22;10719;48.130;11.630;2023-01-29T00:08:43;0.00;99.90
21123;DHT22;10719;48.130;11.630;2023-01-29T00:11:09;0.00;99.90
21123;DHT22;10719;48.130;11.630;2023-01-29T00:13:35;0.00;99.90
21123;DHT22;10719;48.130;11.630;2023-01-29T00:16:01;0.00;99.90
21123;DHT22;10719;48.130;11.630;2023-01-29T00:18:28;0.10;99.90
21123;DHT22;10719;48.130;11.630;2023-01-29T00:20:54;0.10;99.90
21123;DHT22;10719;48.130;11.630;2023-01-29T00:23:20;0.00;99.90
21123;DHT22;10719;48.130;11.630;2023-01-29T00:25:46;0.00;99.90
21123;DHT22;10719;48.130;11.630;2023-01-29T00:28:12;0.00;99.90
21123;DHT22;10719;48.130;11.630;2023-01-29T00:30:38;0.00;99.90
21123;DHT22;10719;48.130;11.630;2023-01-29T00:33:04;-0.10;99.90
21123;DHT22;10719;48.130;11.630;2023-01-29T00:35:30;-0.10;99.90
21123;DHT22;10719;48.130;11.630;2023-01-29T00:37:57;-0.10;99.90
21123;DHT22;10719;48.130;11.630;2023-01-29T00:40:23;-0.10;99.90
21123;DHT22;10719;48.130;11.630;2023-01-29T00:42:49;-0.10;99.90
21123;DHT22;10719;48.130;11.630;2023-01-29T00:45:34;-0.10;99.90
21123;DHT22;10719;48.130;11.630;2023-01-29T00:48:02;-0.20;99.90
21123;DHT22;10719;48.130;11.630;2023-01-29T00:50:28;-0.30;99.90
21123;DHT22;10719;48.130;11.630;2023-01-29T00:52:54;-0.30;99.90
21123;DHT22;10719;48.130;11.630;2023-01-29T00:55:20;-0.30;99.90
21123;DHT22;10719;48.130;11.630;2023-01-29T00:57:45;-0.30;99.90
21123;DHT22;10719;48.130;11.630;2023-01-29T01:00:14;-0.40;99.90
21123;DHT22;10719;48.130;11.630;2023-01-29T01:02:39;-0.40;99.90
21123;DHT22;10719;48.130;11.630;2023-01-29T01:05:24;-0.40;99.90
21123;DHT22;10719;48.130;11.630;2023-01-29T01:07:52;-0.40;99.90
21123;DHT22;10719;48.130;11.630;2023-01-29T01:10:24;-0.40;99.90
21123;DHT22;10719;48.130;11.630;2023-01-29T01:13:02;-0.40;99.90
21123;DHT22;10719;48.130;11.630;2023-01-29T01:15:30;-0.40;99.90
21123;DHT22;10719;48.130;11.630;2023-01-29T01:18:00;-0.40;99.90
21123;DHT22;10719;48.130;11.630;2023-01-29T01:20:28;-0.30;99.90
21123;DHT22;10719;48.130;11.630;2023-01-29T01:22:54;-0.40;99.90
21123;DHT22;10719;48.130;11.630;2023-01-29T01:25:23;-0.30;99.90
21123;DHT22;10719;48.130;11.630;2023-01-29T01:27:54;-0.40;99.90
21123;DHT22;10719;48.130;11.630;2023-01-29T01:30:20;-0.40;99.90
21123;DHT22;10719;48.130;11.630;2023-01-29T01:32:46;-0.40;99.90
21123;DHT22;10719;48.130;11.630;2023-01-29T01:35:12;-0.40;99.90
21123;DHT22;10719;48.130;11.630;2023-01-29T01:37:39;-0.40;99.90
21123;DHT22;10719;48.130;11.630;2023-01-29T01:40:08;-0.50;99.90
21123;DHT22;10719;48.130;11.630;2023-01-29T01:42:40;-0.40;99.90
21123;DHT22;10719;48.130;11.630;2023-01-29T01:45:13;-0.40;99.90
21123;DHT22;10719;48.130;11.630;2023-01-29T01:48:10;-0.40;99.90
21123;DHT22;10719;48.130;11.630;2023-01-29T01:50:40;-0.30;99.90
21123;DHT22;10719;48.130;11.630;2023-01-29T01:53:12;-0.30;99.90
21123;DHT22;10719;48.130;11.630;2023-01-29T01:55:45;-0.40;99.90
21123;DHT22;10719;48.130;11.630;2023-01-29T01:58:20;-0.40;99.90
21123;DHT22;10719;48.130;11.630;2023-01-29T02:00:46;-0.40;99.90
21123;DHT22;10719;48.130;11.630;2023-01-29T02:03:12;-0.30;99.90
21123;DHT22;10719;48.130;11.630;2023-01-29T02:05:57;-0.30;99.90
21123;DHT22;10719;48.130;11.630;2023-01-29T02:08:48;-0.40;99.90
21123;DHT22;10719;48.130;11.630;2023-01-29T02:11:35;-0.50;99.90
21123;DHT22;10719;48.130;11.630;2023-01-29T02:14:00;-0.50;99.90
21123;DHT22;10719;48.130;11.630;2023-01-29T02:16:26;-0.50;99.90
21123;DHT22;10719;48.130;11.630;2023-01-29T02:18:52;-0.50;99.90
21123;DHT22;10719;48.130;11.630;2023-01-29T02:27:18;-0.30;99.90
21123;DHT22;10719;48.130;11.630;2023-01-29T02:32:33;-0.50;99.90
21123;DHT22;10719;48.130;11.630;2023-01-29T02:35:24;-0.50;99.90
21123;DHT22;10719;48.130;11.630;2023-01-29T02:49:24;-0.50;99.90
21123;DHT22;10719;48.130;11.630;2023-01-29T02:54:57;-0.40;99.90
21123;DHT22;10719;48.130;11.630;2023-01-29T02:57:31;-0.60;99.90
21123;DHT22;10719;48.130;11.630;2023-01-29T03:00:09;-0.50;99.90
21123;DHT22;10719;48.130;11.630;2023-01-29T03:02:59;-0.50;99.90
21123;DHT22;10719;48.130;11.630;2023-01-29T03:06:09;-0.30;99.90
21123;DHT22;10719;48.130;11.630;2023-01-29T03:08:46;-0.40;99.90
21123;DHT22;10719;48.130;11.630;2023-01-29T03:11:16;-0.50;99.90
21123;DHT22;10719;48.130;11.630;2023-01-29T03:18:53;-0.50;99.90
21123;DHT22;10719;48.130;11.630;2023-01-29T03:21:28;-0.50;99.90
21123;DHT22;10719;48.130;11.630;2023-01-29T03:24:37;-0.40;99.90
21123;DHT22;10719;48.130;11.630;2023-01-29T03:27:28;-0.40;99.90
21123;DHT22;10719;48.130;11.630;2023-01-29T03:33:04;-0.50;99.90
21123;DHT22;10719;48.130;11.630;2023-01-29T03:35:34;-0.50;99.90
21123;DHT22;10719;48.130;11.630;2023-01-29T03:38:09;-0.50;99.90
21123;DHT22;10719;48.130;11.630;2023-01-29T03:40:45;-0.50;99.90
21123;DHT22;10719;48.130;11.630;2023-01-29T03:43:39;-0.60;99.90
21123;DHT22;10719;48.130;11.630;2023-01-29T03:46:09;-0.50;99.90
21123;DHT22;10719;48.130;11.630;2023-01-29T03:49:04;-0.40;99.90
21123;DHT22;10719;48.130;11.630;2023-01-29T03:51:38;-0.40;99.90
21123;DHT22;10719;48.130;11.630;2023-01-29T03:54:13;-0.30;99.90
21123;DHT22;10719;48.130;11.630;2023-01-29T03:59:38;-0.40;99.90
21123;DHT22;10719;48.130;11.630;2023-01-29T04:02:10;-0.50;99.90
21123;DHT22;10719;48.130;11.630;2023-01-29T04:04:39;-0.50;99.90
21123;DHT22;10719;48.130;11.630;2023-01-29T04:07:15;-0.40;99.90
21123;DHT22;10719;48.130;11.630;2023-01-29T04:09:53;-0.40;99.90
21123;DHT22;10719;48.130;11.630;2023-01-29T04:12:25;-0.40;99.90
21123;DHT22;10719;48.130;11.630;2023-01-29T04:14:53;-0.50;99.90
21123;DHT22;10719;48.130;11.630;2023-01-29T04:17:30;-0.50;99.90
21123;DHT22;10719;48.130;11.630;2023-01-29T04:19:59;-0.40;99.90
21123;DHT22;10719;48.130;11.630;2023-01-29T04:22:30;-0.40;99.90
21123;DHT22;10719;48.130;11.630;2023-01-29T04:24:57;-0.40;99.90
21123;DHT22;10719;48.130;11.630;2023-01-29T04:30:22;-0.50;99.90
21123;DHT22;10719;48.130;11.630;2023-01-29T04:33:43;-0.60;99.90
21123;DHT22;10719;48.130;11.630;2023-01-29T04:41:35;-0.50;99.90
21123;DHT22;10719;48.130;11.630;2023-01-29T04:44:28;-0.60;99.90
21123;DHT22;10719;48.130;11.630;2023-01-29T04:47:04;-0.50;99.90
21123;DHT22;10719;48.130;11.630;2023-01-29T04:57:40;-0.70;99.90
21123;DHT22;10719;48.130;11.630;2023-01-29T05:00:44;-0.60;99.90
21123;DHT22;10719;48.130;11.630;2023-01-29T05:03:02;-0.50;99.90
21123;DHT22;10719;48.130;11.630;2023-01-29T05:05:29;-0.50;99.90
21123;DHT22;10719;48.130;11.630;2023-01-29T05:07:56;-0.40;99.90
21123;DHT22;10719;48.130;11.630;2023-01-29T05:10:23;-0.40;99.90
21123;DHT22;10719;48.130;11.630;2023-01-29T05:12:56;-0.40;99.90
21123;DHT22;10719;48.130;11.630;2023-01-29T05:15:30;-0.30;99.90
21123;DHT22;10719;48.130;11.630;2023-01-29T05:17:56;-0.40;99.90
21123;DHT22;10719;48.130;11.630;2023-01-29T05:20:30;-0.40;99.90
21123;DHT22;10719;48.130;11.630;2023-01-29T05:22:57;-0.40;99.90
21123;DHT22;10719;48.130;11.630;2023-01-29T05:25:29;-0.40;99.90
21123;DHT22;10719;48.130;11.630;2023-01-29T05:27:55;-0.40;99.90
21123;DHT22;10719;48.130;11.630;2023-01-29T05:30:41;-0.40;99.90
21123;DHT22;10719;48.130;11.630;2023-01-29T05:33:30;-0.40;99.90
21123;DHT22;10719;48.130;11.630;2023-01-29T05:35:57;-0.40;99.90
21123;DHT22;10719;48.130;11.630;2023-01-29T05:38:24;-0.40;99.90
21123;DHT22;10719;48.130;11.630;2023-01-29T05:40:49;-0.40;99.90
21123;DHT22;10719;48.130;11.630;2023-01-29T05:43:23;-0.40;99.90
21123;DHT22;10719;48.130;11.630;2023-01-29T05:45:57;-0.40;99.90
21123;DHT22;10719;48.130;11.630;2023-01-29T05:48:23;-0.30;99.90
21123;DHT22;10719;48.130;11.630;2023-01-29T05:50:50;-0.30;99.90
21123;DHT22;10719;48.130;11.630;2023-01-29T05:53:15;-0.30;99.90
21123;DHT22;10719;48.130;11.630;2023-01-29T05:55:45;-0.30;99.90
21123;DHT22;10719;48.130;11.630;2023-01-29T05:58:12;-0.30;99.90
21123;DHT22;10719;48.130;11.630;2023-01-29T06:00:38;-0.40;99.90
21123;DHT22;10719;48.130;11.630;2023-01-29T06:03:03;-0.40;99.90
21123;DHT22;10719;48.130;11.630;2023-01-29T06:05:29;-0.30;99.90
21123;DHT22;10719;48.130;11.630;2023-01-29T06:07:55;-0.40;99.90
21123;DHT22;10719;48.130;11.630;2023-01-29T06:10:20;-0.50;99.90
21123;DHT22;10719;48.130;11.630;2023-01-29T06:12:46;-0.50;99.90
21123;DHT22;10719;48.130;11.630;2023-01-29T06:15:12;-0.50;99.90
21123;DHT22;10719;48.130;11.630;2023-01-29T06:17:40;-0.60;99.90
21123;DHT22;10719;48.130;11.630;2023-01-29T06:20:06;-0.60;99.90
21123;DHT22;10719;48.130;11.630;2023-01-29T06:22:32;-0.50;99.90
21123;DHT22;10719;48.130;11.630;2023-01-29T06:24:58;-0.50;99.90
21123;DHT22;10719;48.130;11.630;2023-01-29T06:27:23;-0.40;99.90
21123;DHT22;10719;48.130;11.630;2023-01-29T06:29:49;-0.60;99.90
21123;DHT22;10719;48.130;11.630;2023-01-29T06:32:14;-0.50;99.90
21123;DHT22;10719;48.130;11.630;2023-01-29T06:34:40;-0.60;99.90
21123;DHT22;10719;48.130;11.630;2023-01-29T06:37:06;-0.50;99.90
21123;DHT22;10719;48.130;11.630;2023-01-29T06:39:32;-0.60;99.90
21123;DHT22;10719;48.130;11.630;2023-01-29T06:41:58;-0.60;99.90
21123;DHT22;10719;48.130;11.630;2023-01-29T06:44:23;-0.50;99.90
21123;DHT22;10719;48.130;11.630;2023-01-29T06:46:49;-0.50;99.90
21123;DHT22;10719;48.130;11.630;2023-01-29T06:49:14;-0.60;99.90
21123;DHT22;10719;48.130;11.630;2023-01-29T06:51:40;-0.60;99.90
21123;DHT22;10719;48.130;11.630;2023-01-29T06:54:06;-0.50;99.90
21123;DHT22;10719;48.130;11.630;2023-01-29T06:56:33;-0.50;99.90
21123;DHT22;10719;48.130;11.630;2023-01-29T06:58:58;-0.50;99.90
21123;DHT22;10719;48.130;11.630;2023-01-29T07:01:24;-0.50;99.90
21123;DHT22;10719;48.130;11.630;2023-01-29T07:03:50;-0.40;99.90
21123;DHT22;10719;48.130;11.630;2023-01-29T07:06:18;-0.50;99.90
21123;DHT22;10719;48.130;11.630;2023-01-29T07:08:44;-0.50;99.90
21123;DHT22;10719;48.130;11.630;2023-01-29T07:11:10;-0.40;99.90
21123;DHT22;10719;48.130;11.630;2023-01-29T07:13:36;-0.50;99.90
21123;DHT22;10719;48.130;11.630;2023-01-29T07:16:03;-0.50;99.90
21123;DHT22;10719;48.130;11.630;2023-01-29T07:18:30;-0.50;99.90
21123;DHT22;10719;48.130;11.630;2023-01-29T07:20:56;-0.50;99.90
21123;DHT22;10719;48.130;11.630;2023-01-29T07:23:23;-0.50;99.90
21123;DHT22;10719;48.130;11.630;2023-01-29T07:25:49;-0.50;99.90
21123;DHT22;10719;48.130;11.630;2023-01-29T07:28:18;-0.50;99.90
21123;DHT22;10719;48.130;11.630;2023-01-29T07:30:44;-0.50;99.90
21123;DHT22;10719;48.130;11.630;2023-01-29T07:33:11;-0.40;99.90
21123;DHT22;10719;48.130;11.630;2023-01-29T07:35:38;-0.40;99.90
21123;DHT22;10719;48.130;11.630;2023-01-29T07:38:09;-0.40;99.90
21123;DHT22;10719;48.130;11.630;2023-01-29T07:40:35;-0.30;99.90
21123;DHT22;10719;48.130;11.630;2023-01-29T07:43:03;-0.30;99.90
21123;DHT22;10719;48.130;11.630;2023-01-29T07:45:30;-0.30;99.90
21123;DHT22;10719;48.130;11.630;2023-01-29T07:47:56;-0.20;99.90
21123;DHT22;10719;48.130;11.630;2023-01-29T07:50:23;-0.20;99.90
21123;DHT22;10719;48.130;11.630;2023-01-29T07:52:49;-0.30;99.90
21123;DHT22;10719;48.130;11.630;2023-01-29T07:55:15;-0.30;99.90
21123;DHT22;10719;48.130;11.630;2023-01-29T07:57:41;-0.20;99.90
21123;DHT22;10719;48.130;11.630;2023-01-29T08:00:07;-0.30;99.90
21123;DHT22;10719;48.130;11.630;2023-01-29T08:02:33;-0.30;99.90
21123;DHT22;10719;48.130;11.630;2023-01-29T08:04:58;-0.30;99.90
21123;DHT22;10719;48.130;11.630;2023-01-29T08:07:24;-0.30;99.90
21123;DHT22;10719;48.130;11.630;2023-01-29T08:09:50;-0.30;99.90
21123;DHT22;10719;48.130;11.630;2023-01-29T08:12:15;-0.30;99.90
21123;DHT22;10719;48.130;11.630;2023-01-29T08:14:41;-0.30;99.90
21123;DHT22;10719;48.130;11.630;2023-01-29T08:17:06;-0.20;99.90
21123;DHT22;10719;48.130;11.630;2023-01-29T08:19:32;-0.20;99.90
21123;DHT22;10719;48.130;11.630;2023-01-29T08:21:57;-0.20;99.90
21123;DHT22;10719;48.130;11.630;2023-01-29T08:24:23;-0.10;99.90
21123;DHT22;10719;48.130;11.630;2023-01-29T08:26:49;-0.10;99.90
21123;DHT22;10719;48.130;11.630;2023-01-29T08:29:14;-0.20;99.90
21123;DHT22;10719;48.130;11.630;2023-01-29T08:31:40;-0.20;99.90
21123;DHT22;10719;48.130;11.630;2023-01-29T08:34:06;-0.20;99.90
21123;DHT22;10719;48.130;11.630;2023-01-29T08:36:31;-0.10;99.90
21123;DHT22;10719;48.130;11.630;2023-01-29T08:38:57;0.00;99.90
21123;DHT22;10719;48.130;11.630;2023-01-29T08:41:23;0.20;99.90
21123;DHT22;10719;48.130;11.630;2023-01-29T08:43:48;0.10;99.90
21123;DHT22;10719;48.130;11.630;2023-01-29T08:46:14;0.20;99.90
21123;DHT22;10719;48.130;11.630;2023-01-29T08:48:39;0.20;99.90
21123;DHT22;10719;48.130;11.630;2023-01-29T08:51:05;0.20;99.90
21123;DHT22;10719;48.130;11.630;2023-01-29T08:53:31;0.10;99.90
21123;DHT22;10719;48.130;11.630;2023-01-29T08:55:57;0.10;99.90
21123;DHT22;10719;48.130;11.630;2023-01-29T08:58:23;0.10;99.90
21123;DHT22;10719;48.130;11.630;2023-01-29T09:00:48;0.10;99.90
21123;DHT22;10719;48.130;11.630;2023-01-29T09:03:14;0.20;99.90
21123;DHT22;10719;48.130;11.630;2023-01-29T09:05:40;0.20;99.90
21123;DHT22;10719;48.130;11.630;2023-01-29T09:08:06;0.20;99.90
21123;DHT22;10719;48.130;11.630;2023-01-29T09:10:32;0.20;99.90
21123;DHT22;10719;48.130;11.630;2023-01-29T09:12:58;0.30;99.90
21123;DHT22;10719;48.130;11.630;2023-01-29T09:15:24;0.40;99.90
21123;DHT22;10719;48.130;11.630;2023-01-29T09:17:49;0.40;99.90
21123;DHT22;10719;48.130;11.630;2023-01-29T09:20:16;0.30;99.90
21123;DHT22;10719;48.130;11.630;2023-01-29T09:22:42;0.40;99.90
21123;DHT22;10719;48.130;11.630;2023-01-29T09:25:08;0.30;99.90
21123;DHT22;10719;48.130;11.630;2023-01-29T09:27:34;0.40;99.90
21123;DHT22;10719;48.130;11.630;2023-01-29T09:29:59;0.30;99.90
21123;DHT22;10719;48.130;11.630;2023-01-29T09:32:25;0.30;99.90
21123;DHT22;10719;48.130;11.630;2023-01-29T09:34:50;0.10;99.90
21123;DHT22;10719;48.130;11.630;2023-01-29T09:37:16;-0.10;99.90
21123;DHT22;10719;48.130;11.630;2023-01-29T09:39:42;0.10;99.90
21123;DHT22;10719;48.130;11.630;2023-01-29T09:45:11;0.20;99.90
21123;DHT22;10719;48.130;11.630;2023-01-29T09:47:38;0.30;99.90
21123;DHT22;10719;48.130;11.630;2023-01-29T09:50:23;0.50;99.90
21123;DHT22;10719;48.130;11.630;2023-01-29T09:53:12;0.30;99.90
21123;DHT22;10719;48.130;11.630;2023-01-29T09:55:49;0.30;99.90
21123;DHT22;10719;48.130;11.630;2023-01-29T09:58:26;0.40;99.90
21123;DHT22;10719;48.130;11.630;2023-01-29T10:03:45;0.50;99.90
21123;DHT22;10719;48.130;11.630;2023-01-29T10:20:24;0.60;99.90
21123;DHT22;10719;48.130;11.630;2023-01-29T10:25:32;0.60;99.90
21123;DHT22;10719;48.130;11.630;2023-01-29T10:28:01;0.60;99.90
21123;DHT22;10719;48.130;11.630;2023-01-29T10:30:38;0.60;99.90
21123;DHT22;10719;48.130;11.630;2023-01-29T10:33:08;0.60;99.90
21123;DHT22;10719;48.130;11.630;2023-01-29T10:35:39;0.50;99.90
21123;DHT22;10719;48.130;11.630;2023-01-29T10:38:35;0.60;99.90
21123;DHT22;10719;48.130;11.630;2023-01-29T10:41:16;0.50;99.90
21123;DHT22;10719;48.130;11.630;2023-01-29T10:49:25;0.30;99.90
21123;DHT22;10719;48.130;11.630;2023-01-29T10:52:18;0.50;99.90
21123;DHT22;10719;48.130;11.630;2023-01-29T10:57:36;0.60;99.90
21123;DHT22;10719;48.130;11.630;2023-01-29T11:00:24;0.60;99.90
21123;DHT22;10719;48.130;11.630;2023-01-29T11:02:51;0.50;99.90
21123;DHT22;10719;48.130;11.630;2023-01-29T11:05:32;0.50;99.90
21123;DHT22;10719;48.130;11.630;2023-01-29T11:08:14;0.50;99.90
21123;DHT22;10719;48.130;11.630;2023-01-29T11:13:14;0.60;99.90
21123;DHT22;10719;48.130;11.630;2023-01-29T11:15:40;0.60;99.90
21123;DHT22;10719;48.130;11.630;2023-01-29T11:18:11;0.50;99.90
21123;DHT22;10719;48.130;11.630;2023-01-29T11:20:44;0.50;99.90
21123;DHT22;10719;48.130;11.630;2023-01-29T11:23:31;0.80;99.90
21123;DHT22;10719;48.130;11.630;2023-01-29T11:25:59;0.60;99.90
21123;DHT22;10719;48.130;11.630;2023-01-29T11:28:54;0.50;99.90
21123;DHT22;10719;48.130;11.630;2023-01-29T11:31:36;0.60;99.90
21123;DHT22;10719;48.130;11.630;2023-01-29T11:34:20;0.60;99.90
21123;DHT22;10719;48.130;11.630;2023-01-29T11:37:00;0.50;99.90
21123;DHT22;10719;48.130;11.630;2023-01-29T11:39:27;0.30;99.90
21123;DHT22;10719;48.130;11.630;2023-01-29T11:42:03;0.30;99.90
21123;DHT22;10719;48.130;11.630;2023-01-29T11:47:30;0.40;99.90
21123;DHT22;10719;48.130;11.630;2023-01-29T11:50:00;0.40;99.90
21123;DHT22;10719;48.130;11.630;2023-01-29T11:52:35;0.60;99.90
21123;DHT22;10719;48.130;11.630;2023-01-29T11:55:13;0.80;99.90
21123;DHT22;10719;48.130;11.630;2023-01-29T11:57:42;0.80;99.90
21123;DHT22;10719;48.130;11.630;2023-01-29T12:00:19;0.80;99.90
21123;DHT22;10719;48.130;11.630;2023-01-29T12:02:52;0.80;99.90
21123;DHT22;10719;48.130;11.630;2023-01-29T12:05:24;0.80;99.90
21123;DHT22;10719;48.130;11.630;2023-01-29T12:07:58;0.70;99.90
21123;DHT22;10719;48.130;11.630;2023-01-29T12:15:29;0.70;99.90
21123;DHT22;10719;48.130;11.630;2023-01-29T12:21:03;0.90;99.90
21123;DHT22;10719;48.130;11.630;2023-01-29T12:26:33;0.80;99.90
21123;DHT22;10719;48.130;11.630;2023-01-29T12:34:53;0.80;99.90
21123;DHT22;10719;48.130;11.630;2023-01-29T12:40:12;1.10;99.90
21123;DHT22;10719;48.130;11.630;2023-01-29T12:42:40;0.90;99.90
21123;DHT22;10719;48.130;11.630;2023-01-29T12:45:08;0.90;99.90
21123;DHT22;10719;48.130;11.630;2023-01-29T12:47:43;0.90;99.90
21123;DHT22;10719;48.130;11.630;2023-01-29T12:50:31;0.90;99.90
21123;DHT22;10719;48.130;11.630;2023-01-29T12:52:58;0.90;99.90
21123;DHT22;10719;48.130;11.630;2023-01-29T12:55:44;0.80;99.90
21123;DHT22;10719;48.130;11.630;2023-01-29T12:58:15;0.70;99.90
21123;DHT22;10719;48.130;11.630;2023-01-29T13:00:47;0.70;99.90
21123;DHT22;10719;48.130;11.630;2023-01-29T13:05:48;0.70;99.90
21123;DHT22;10719;48.130;11.630;2023-01-29T13:08:17;0.70;99.90
21123;DHT22;10719;48.130;11.630;2023-01-29T13:10:48;0.80;99.90
21123;DHT22;10719;48.130;11.630;2023-01-29T13:14:17;0.80;99.90
21123;DHT22;10719;48.130;11.630;2023-01-29T13:16:26;0.80;99.90
21123;DHT22;10719;48.130;11.630;2023-01-29T13:19:04;0.80;99.90
21123;DHT22;10719;48.130;11.630;2023-01-29T13:21:38;0.70;99.90
21123;DHT22;10719;48.130;11.630;2023-01-29T13:24:14;0.60;99.90
21123;DHT22;10719;48.130;11.630;2023-01-29T13:26:44;0.80;99.90
21123;DHT22;10719;48.130;11.630;2023-01-29T13:29:25;0.80;99.90
21123;DHT22;10719;48.130;11.630;2023-01-29T13:31:53;0.80;99.90
21123;DHT22;10719;48.130;11.630;2023-01-29T13:34:32;0.70;99.90
21123;DHT22;10719;48.130;11.630;2023-01-29T13:37:02;0.80;99.90
21123;DHT22;10719;48.130;11.630;2023-01-29T13:39:30;0.80;99.90
21123;DHT22;10719;48.130;11.630;2023-01-29T13:41:58;0.80;99.90
21123;DHT22;10719;48.130;11.630;2023-01-29T13:44:37;0.90;99.90
21123;DHT22;10719;48.130;11.630;2023-01-29T13:47:09;0.90;99.90
21123;DHT22;10719;48.130;11.630;2023-01-29T13:49:44;0.80;99.90
21123;DHT22;10719;48.130;11.630;2023-01-29T13:55:04;0.90;99.90
21123;DHT22;10719;48.130;11.630;2023-01-29T14:10:25;0.80;99.90
21123;DHT22;10719;48.130;11.630;2023-01-29T14:12:53;1.00;99.90
21123;DHT22;10719;48.130;11.630;2023-01-29T14:15:29;1.10;99.90
21123;DHT22;10719;48.130;11.630;2023-01-29T14:18:16;1.00;99.90
21123;DHT22;10719;48.130;11.630;2023-01-29T14:26:31;1.00;99.90
21123;DHT22;10719;48.130;11.630;2023-01-29T14:31:59;1.00;99.90
21123;DHT22;10719;48.130;11.630;2023-01-29T14:34:31;0.80;99.90
21123;DHT22;10719;48.130;11.630;2023-01-29T14:37:02;0.70;99.90
21123;DHT22;10719;48.130;11.630;2023-01-29T14:39:46;0.70;99.90
21123;DHT22;10719;48.130;11.630;2023-01-29T14:42:26;0.70;99.90
21123;DHT22;10719;48.130;11.630;2023-01-29T14:44:55;0.60;99.90
21123;DHT22;10719;48.130;11.630;2023-01-29T14:50:41;0.60;99.90
21123;DHT22;10719;48.130;11.630;2023-01-29T14:53:24;0.50;99.90
21123;DHT22;10719;48.130;11.630;2023-01-29T14:56:08;0.50;99.90
21123;DHT22;10719;48.130;11.630;2023-01-29T14:58:49;0.50;99.90
21123;DHT22;10719;48.130;11.630;2023-01-29T15:01:34;0.50;99.90
21123;DHT22;10719;48.130;11.630;2023-01-29T15:04:15;0.30;99.90
21123;DHT22;10719;48.130;11.630;2023-01-29T15:06:51;0.30;99.90
21123;DHT22;10719;48.130;11.630;2023-01-29T15:09:48;0.30;99.90
21123;DHT22;10719;48.130;11.630;2023-01-29T15:12:26;0.30;99.90
21123;DHT22;10719;48.130;11.630;2023-01-29T15:20:39;0.20;99.90
21123;DHT22;10719;48.130;11.630;2023-01-29T15:25:50;0.30;99.90
21123;DHT22;10719;48.130;11.630;2023-01-29T15:28:16;0.20;99.90
21123;DHT22;10719;48.130;11.630;2023-01-29T15:30:42;0.30;99.90
21123;DHT22;10719;48.130;11.630;2023-01-29T15:33:10;0.30;99.90
21123;DHT22;10719;48.130;11.630;2023-01-29T15:35:40;0.30;99.90
21123;DHT22;10719;48.130;11.630;2023-01-29T15:38:21;0.30;99.90
21123;DHT22;10719;48.130;11.630;2023-01-29T15:43:28;0.30;99.90
21123;DHT22;10719;48.130;11.630;2023-01-29T15:46:00;0.20;99.90
21123;DHT22;10719;48.130;11.630;2023-01-29T15:48:34;0.10;99.90
21123;DHT22;10719;48.130;11.630;2023-01-29T15:51:01;0.20;99.90
21123;DHT22;10719;48.130;11.630;2023-01-29T15:56:19;0.30;99.90
21123;DHT22;10719;48.130;11.630;2023-01-29T15:58:47;0.10;99.90
21123;DHT22;10719;48.130;11.630;2023-01-29T16:01:14;0.00;99.90
21123;DHT22;10719;48.130;11.630;2023-01-29T16:03:40;-0.10;99.90
21123;DHT22;10719;48.130;11.630;2023-01-29T16:06:07;-0.10;99.90
21123;DHT22;10719;48.130;11.630;2023-01-29T16:08:33;0.00;99.90
21123;DHT22;10719;48.130;11.630;2023-01-29T16:11:02;0.10;99.90
21123;DHT22;10719;48.130;11.630;2023-01-29T16:13:30;0.10;99.90
21123;DHT22;10719;48.130;11.630;2023-01-29T16:18:38;0.00;99.90
21123;DHT22;10719;48.130;11.630;2023-01-29T16:21:08;-0.10;99.90
21123;DHT22;10719;48.130;11.630;2023-01-29T16:23:48;-0.10;99.90
21123;DHT22;10719;48.130;11.630;2023-01-29T16:26:17;-0.10;99.90
21123;DHT22;10719;48.130;11.630;2023-01-29T16:28:45;-0.10;99.90
21123;DHT22;10719;48.130;11.630;2023-01-29T16:31:12;-0.10;99.90
21123;DHT22;10719;48.130;11.630;2023-01-29T16:33:44;0.00;99.90
21123;DHT22;10719;48.130;11.630;2023-01-29T16:36:17;0.00;99.90
21123;DHT22;10719;48.130;11.630;2023-01-29T16:38:49;-0.10;99.90
21123;DHT22;10719;48.130;11.630;2023-01-29T16:48:51;0.00;99.90
21123;DHT22;10719;48.130;11.630;2023-01-29T16:51:37;0.10;99.90
21123;DHT22;10719;48.130;11.630;2023-01-29T16:54:09;0.00;99.90
21123;DHT22;10719;48.130;11.630;2023-01-29T16:56:37;0.00;99.90
21123;DHT22;10719;48.130;11.630;2023-01-29T16:59:07;0.00;99.90
21123;DHT22;10719;48.130;11.630;2023-01-29T17:01:42;0.00;99.90
21123;DHT22;10719;48.130;11.630;2023-01-29T17:04:13;0.00;99.90
21123;DHT22;10719;48.130;11.630;2023-01-29T17:06:45;0.00;99.90
21123;DHT22;10719;48.130;11.630;2023-01-29T17:09:27;0.00;99.90
21123;DHT22;10719;48.130;11.630;2023-01-29T17:12:03;0.00;99.90
21123;DHT22;10719;48.130;11.630;2023-01-29T17:14:30;0.00;99.90
21123;DHT22;10719;48.130;11.630;2023-01-29T17:17:06;-0.10;99.90
21123;DHT22;10719;48.130;11.630;2023-01-29T17:19:37;-0.10;99.90
21123;DHT22;10719;48.130;11.630;2023-01-29T17:22:03;-0.10;99.90
21123;DHT22;10719;48.130;11.630;2023-01-29T17:24:32;-0.10;99.90
21123;DHT22;10719;48.130;11.630;2023-01-29T17:26:59;-0.20;99.90
21123;DHT22;10719;48.130;11.630;2023-01-29T17:29:28;-0.20;99.90
21123;DHT22;10719;48.130;11.630;2023-01-29T17:31:54;-0.30;99.90
21123;DHT22;10719;48.130;11.630;2023-01-29T17:34:20;-0.30;99.90
21123;DHT22;10719;48.130;11.630;2023-01-29T17:36:46;-0.30;99.90
21123;DHT22;10719;48.130;11.630;2023-01-29T17:39:18;-0.40;99.90
21123;DHT22;10719;48.130;11.630;2023-01-29T17:41:50;-0.40;99.90
21123;DHT22;10719;48.130;11.630;2023-01-29T17:44:17;-0.40;99.90
21123;DHT22;10719;48.130;11.630;2023-01-29T17:46:43;-0.40;99.90
21123;DHT22;10719;48.130;11.630;2023-01-29T17:49:24;-0.30;99.90
21123;DHT22;10719;48.130;11.630;2023-01-29T17:51:51;-0.30;99.90
21123;DHT22;10719;48.130;11.630;2023-01-29T17:54:21;-0.30;99.90
21123;DHT22;10719;48.130;11.630;2023-01-29T17:56:48;-0.40;99.90
21123;DHT22;10719;48.130;11.630;2023-01-29T17:59:22;-0.40;99.90
21123;DHT22;10719;48.130;11.630;2023-01-29T18:01:48;-0.50;99.90
21123;DHT22;10719;48.130;11.630;2023-01-29T18:04:15;-0.50;99.90
21123;DHT22;10719;48.130;11.630;2023-01-29T18:06:47;-0.50;99.90
21123;DHT22;10719;48.130;11.630;2023-01-29T18:11:48;-0.50;99.90
21123;DHT22;10719;48.130;11.630;2023-01-29T18:14:14;-0.60;99.90
21123;DHT22;10719;48.130;11.630;2023-01-29T18:16:41;-0.50;99.90
21123;DHT22;10719;48.130;11.630;2023-01-29T18:19:15;-0.40;99.90
21123;DHT22;10719;48.130;11.630;2023-01-29T18:21:40;-0.40;99.90
21123;DHT22;10719;48.130;11.630;2023-01-29T18:24:06;-0.30;99.90
21123;DHT22;10719;48.130;11.630;2023-01-29T18:26:32;-0.40;99.90
21123;DHT22;10719;48.130;11.630;2023-01-29T18:28:58;-0.50;99.90
21123;DHT22;10719;48.130;11.630;2023-01-29T18:31:23;-0.50;99.90